createdAt,value
2018-02-02T01:39:12.141Z,996.51
2018-02-02T01:39:12.650Z,996.46
2018-02-02T01:39:13.246Z,996.50
2018-02-02T01:39:13.846Z,996.45
2018-02-02T01:39:14.449Z,996.45
2018-02-02T01:39:15.046Z,996.48
2018-02-02T01:39:15.645Z,996.49
2018-02-02T01:40:10.155Z,996.45
2018-02-02T01:40:10.753Z,996.45
2018-02-02T01:40:11.352Z,996.43
2018-02-02T01:40:11.952Z,996.45
2018-02-02T01:40:12.550Z,996.47
2018-02-02T01:40:13.151Z,996.45
2018-02-02T01:40:13.751Z,996.47
2018-02-02T01:40:14.350Z,996.43
2018-02-02T01:41:08.831Z,996.44
2018-02-02T01:41:09.428Z,996.45
2018-02-02T01:41:10.028Z,996.45
2018-02-02T01:41:10.628Z,996.46
2018-02-02T01:41:11.227Z,996.48
2018-02-02T01:41:11.826Z,996.48
2018-02-02T01:41:12.426Z,996.47
2018-02-02T01:41:13.028Z,996.46
2018-02-02T01:42:06.516Z,996.43
2018-02-02T01:42:07.084Z,996.47
2018-02-02T01:42:07.679Z,996.48
2018-02-02T01:42:08.279Z,996.42
2018-02-02T01:42:08.882Z,996.47
2018-02-02T01:42:09.484Z,996.48
2018-02-02T01:42:10.080Z,996.49
2018-02-02T01:42:10.680Z,996.44
2018-02-02T01:43:05.165Z,996.45
2018-02-02T01:43:05.757Z,996.45
2018-02-02T01:43:06.355Z,996.49
2018-02-02T01:43:06.957Z,996.43
2018-02-02T01:43:07.555Z,996.41
2018-02-02T01:43:08.155Z,996.44
2018-02-02T01:43:08.756Z,996.46
2018-02-02T01:43:09.356Z,996.47
2018-02-02T01:44:03.835Z,996.49
2018-02-02T01:44:04.432Z,996.46
2018-02-02T01:44:05.033Z,996.48
2018-02-02T01:44:05.632Z,996.46
2018-02-02T01:44:06.230Z,996.47
2018-02-02T01:44:06.831Z,996.50
2018-02-02T01:44:07.431Z,996.49
2018-02-02T01:44:08.030Z,996.47
2018-02-02T01:45:01.492Z,996.46
2018-02-02T01:45:02.084Z,996.46
2018-02-02T01:45:02.684Z,996.48
2018-02-02T01:45:03.285Z,996.50
2018-02-02T01:45:03.886Z,996.47
2018-02-02T01:45:04.489Z,996.48
2018-02-02T01:45:05.084Z,996.46
2018-02-02T01:45:05.683Z,996.51
2018-02-02T01:46:00.162Z,996.40
2018-02-02T01:46:00.759Z,996.41
2018-02-02T01:46:01.360Z,996.42
2018-02-02T01:46:01.959Z,996.41
2018-02-02T01:46:02.558Z,996.37
2018-02-02T01:46:03.158Z,996.42
2018-02-02T01:46:03.759Z,996.40
2018-02-02T01:46:04.358Z,996.39
2018-02-02T01:46:58.840Z,996.44
2018-02-02T01:46:59.437Z,996.42
2018-02-02T01:47:00.038Z,996.43
2018-02-02T01:47:00.637Z,996.43
2018-02-02T01:47:01.237Z,996.43
2018-02-02T01:47:01.836Z,996.44
2018-02-02T01:47:02.434Z,996.44
2018-02-02T01:47:03.035Z,996.41
2018-02-02T01:47:56.516Z,996.46
2018-02-02T01:47:57.091Z,996.41
2018-02-02T01:47:57.688Z,996.43
2018-02-02T01:47:58.288Z,996.42
2018-02-02T01:47:58.902Z,996.43
2018-02-02T01:47:59.491Z,996.44
2018-02-02T01:48:00.090Z,996.42
2018-02-02T01:48:00.689Z,996.44
2018-02-02T01:48:54.144Z,996.46
2018-02-02T01:48:54.741Z,996.46
2018-02-02T01:48:55.341Z,996.46
2018-02-02T01:48:55.940Z,996.46
2018-02-02T01:48:56.538Z,996.45
2018-02-02T01:48:57.139Z,996.45
2018-02-02T01:48:57.744Z,996.47
2018-02-02T01:48:58.338Z,996.47
2018-02-02T01:49:52.818Z,996.45
2018-02-02T01:49:53.416Z,996.45
2018-02-02T01:49:54.014Z,996.43
2018-02-02T01:49:54.615Z,996.42
2018-02-02T01:49:55.215Z,996.45
2018-02-02T01:49:55.816Z,996.44
2018-02-02T01:49:56.417Z,996.46
2018-02-02T01:49:57.013Z,996.48
2018-02-02T01:50:50.471Z,996.46
2018-02-02T01:50:51.067Z,996.38
2018-02-02T01:50:51.666Z,996.37
2018-02-02T01:50:52.267Z,996.40
2018-02-02T01:50:52.866Z,996.39
2018-02-02T01:50:53.467Z,996.42
2018-02-02T01:50:54.066Z,996.43
2018-02-02T01:50:54.666Z,996.41
2018-02-02T01:51:48.122Z,996.47
2018-02-02T01:51:48.722Z,996.42
2018-02-02T01:51:49.319Z,996.44
2018-02-02T01:51:49.922Z,996.45
2018-02-02T01:51:50.519Z,996.47
2018-02-02T01:51:51.119Z,996.42
2018-02-02T01:51:51.718Z,996.44
2018-02-02T01:51:52.318Z,996.44
2018-02-02T01:52:45.808Z,996.41
2018-02-02T01:52:46.374Z,996.43
2018-02-02T01:52:46.970Z,996.41
2018-02-02T01:52:47.570Z,996.40
2018-02-02T01:52:48.171Z,996.42
2018-02-02T01:52:48.770Z,996.41
2018-02-02T01:52:49.371Z,996.39
2018-02-02T01:52:49.970Z,996.44
2018-02-02T01:53:43.427Z,996.35
2018-02-02T01:53:44.023Z,996.32
2018-02-02T01:53:44.621Z,996.32
2018-02-02T01:53:45.223Z,996.37
2018-02-02T01:53:45.823Z,996.37
2018-02-02T01:53:46.421Z,996.35
2018-02-02T01:53:47.021Z,996.36
2018-02-02T01:53:47.627Z,996.33
2018-02-02T01:54:53.775Z,996.40
2018-02-02T01:54:54.374Z,996.36
2018-02-02T01:54:54.971Z,996.35
2018-02-02T01:54:55.583Z,996.41
2018-02-02T01:54:56.172Z,996.36
2018-02-02T01:54:56.771Z,996.40
2018-02-02T01:54:57.371Z,996.41
2018-02-02T01:54:57.971Z,996.40
2018-02-02T01:55:51.432Z,996.40
2018-02-02T01:55:52.022Z,996.40
2018-02-02T01:55:52.623Z,996.41
2018-02-02T01:55:53.223Z,996.37
2018-02-02T01:55:53.823Z,996.38
2018-02-02T01:55:54.422Z,996.39
2018-02-02T01:55:55.022Z,996.43
2018-02-02T01:55:55.621Z,996.43
2018-02-02T01:56:50.167Z,996.45
2018-02-02T01:56:50.703Z,996.45
2018-02-02T01:56:51.300Z,996.44
2018-02-02T01:56:51.899Z,996.41
2018-02-02T01:56:52.499Z,996.40
2018-02-02T01:56:53.099Z,996.39
2018-02-02T01:56:53.706Z,996.39
2018-02-02T01:56:54.298Z,996.38
2018-02-02T01:57:48.809Z,996.44
2018-02-02T01:57:49.375Z,996.42
2018-02-02T01:57:49.975Z,996.44
2018-02-02T01:57:50.574Z,996.44
2018-02-02T01:57:51.173Z,996.42
2018-02-02T01:57:51.773Z,996.44
2018-02-02T01:57:52.428Z,996.42
2018-02-02T01:57:52.975Z,996.42
2018-02-02T01:58:47.454Z,996.41
2018-02-02T01:58:48.051Z,996.38
2018-02-02T01:58:48.651Z,996.41
2018-02-02T01:58:49.251Z,996.42
2018-02-02T01:58:49.851Z,996.38
2018-02-02T01:58:50.450Z,996.35
2018-02-02T01:58:51.050Z,996.43
2018-02-02T01:58:51.651Z,996.42
2018-02-02T01:59:45.108Z,996.40
2018-02-02T01:59:45.706Z,996.39
2018-02-02T01:59:46.304Z,996.43
2018-02-02T01:59:46.903Z,996.37
2018-02-02T01:59:47.503Z,996.40
2018-02-02T01:59:48.103Z,996.41
2018-02-02T01:59:48.702Z,996.42
2018-02-02T01:59:49.302Z,996.39
2018-02-02T02:00:42.757Z,996.39
2018-02-02T02:00:43.355Z,996.41
2018-02-02T02:00:43.954Z,996.41
2018-02-02T02:00:44.554Z,996.40
2018-02-02T02:00:45.154Z,996.41
2018-02-02T02:00:45.754Z,996.43
2018-02-02T02:00:46.354Z,996.39
2018-02-02T02:00:46.956Z,996.40
2018-02-02T02:01:40.410Z,996.38
2018-02-02T02:01:41.007Z,996.35
2018-02-02T02:01:41.606Z,996.40
2018-02-02T02:01:42.206Z,996.34
2018-02-02T02:01:42.805Z,996.38
2018-02-02T02:01:43.408Z,996.39
2018-02-02T02:01:44.006Z,996.38
2018-02-02T02:01:44.604Z,996.37
2018-02-02T02:02:39.084Z,996.34
2018-02-02T02:02:39.682Z,996.34
2018-02-02T02:02:40.281Z,996.34
2018-02-02T02:02:40.883Z,996.35
2018-02-02T02:02:41.481Z,996.32
2018-02-02T02:02:42.080Z,996.36
2018-02-02T02:02:42.681Z,996.33
2018-02-02T02:02:43.281Z,996.34
2018-02-02T02:03:36.771Z,996.36
2018-02-02T02:03:37.334Z,996.38
2018-02-02T02:03:37.934Z,996.34
2018-02-02T02:03:38.534Z,996.37
2018-02-02T02:03:39.134Z,996.36
2018-02-02T02:03:39.732Z,996.38
2018-02-02T02:03:40.333Z,996.36
2018-02-02T02:03:40.936Z,996.36
2018-02-02T02:04:34.389Z,996.39
2018-02-02T02:04:34.986Z,996.36
2018-02-02T02:04:35.585Z,996.34
2018-02-02T02:04:36.186Z,996.34
2018-02-02T02:04:36.785Z,996.36
2018-02-02T02:04:37.386Z,996.39
2018-02-02T02:04:37.984Z,996.40
2018-02-02T02:04:38.585Z,996.37
2018-02-02T02:05:32.042Z,996.32
2018-02-02T02:05:32.638Z,996.35
2018-02-02T02:05:33.238Z,996.34
2018-02-02T02:05:33.837Z,996.35
2018-02-02T02:05:34.438Z,996.35
2018-02-02T02:05:35.044Z,996.36
2018-02-02T02:05:35.637Z,996.34
2018-02-02T02:05:36.235Z,996.33
2018-02-02T02:06:29.692Z,996.23
2018-02-02T02:06:30.290Z,996.30
2018-02-02T02:06:30.889Z,996.30
2018-02-02T02:06:31.490Z,996.33
2018-02-02T02:06:32.088Z,996.31
2018-02-02T02:06:32.690Z,996.34
2018-02-02T02:06:33.288Z,996.31
2018-02-02T02:06:33.890Z,996.36
2018-02-02T02:07:27.345Z,996.31
2018-02-02T02:07:27.941Z,996.26
2018-02-02T02:07:28.541Z,996.27
2018-02-02T02:07:29.141Z,996.30
2018-02-02T02:07:29.740Z,996.30
2018-02-02T02:07:30.341Z,996.33
2018-02-02T02:07:30.944Z,996.30
2018-02-02T02:07:31.540Z,996.35
2018-02-02T02:08:24.996Z,996.24
2018-02-02T02:08:25.593Z,996.29
2018-02-02T02:08:26.193Z,996.27
2018-02-02T02:08:26.791Z,996.28
2018-02-02T02:08:27.390Z,996.27
2018-02-02T02:08:27.992Z,996.32
2018-02-02T02:08:28.591Z,996.33
2018-02-02T02:08:29.192Z,996.27
2018-02-02T02:09:35.793Z,996.34
2018-02-02T02:09:36.297Z,996.32
2018-02-02T02:09:36.896Z,996.34
2018-02-02T02:09:37.495Z,996.32
2018-02-02T02:09:38.096Z,996.31
2018-02-02T02:09:38.695Z,996.35
2018-02-02T02:09:39.296Z,996.28
2018-02-02T02:09:39.895Z,996.33
2018-02-02T02:10:33.920Z,996.30
2018-02-02T02:10:34.516Z,996.32
2018-02-02T02:10:35.115Z,996.34
2018-02-02T02:10:35.715Z,996.31
2018-02-02T02:10:36.315Z,996.31
2018-02-02T02:10:36.913Z,996.33
2018-02-02T02:10:37.514Z,996.32
2018-02-02T02:10:38.115Z,996.34
2018-02-02T02:11:31.572Z,996.34
2018-02-02T02:11:32.167Z,996.31
2018-02-02T02:11:32.767Z,996.32
2018-02-02T02:11:33.367Z,996.31
2018-02-02T02:11:33.969Z,996.32
2018-02-02T02:11:34.568Z,996.29
2018-02-02T02:11:35.170Z,996.33
2018-02-02T02:11:35.766Z,996.29
2018-02-02T02:12:29.221Z,996.30
2018-02-02T02:12:29.819Z,996.31
2018-02-02T02:12:30.419Z,996.34
2018-02-02T02:12:31.018Z,996.33
2018-02-02T02:12:31.618Z,996.34
2018-02-02T02:12:32.219Z,996.30
2018-02-02T02:12:32.821Z,996.32
2018-02-02T02:12:33.418Z,996.33
2018-02-02T02:13:26.874Z,996.29
2018-02-02T02:13:27.470Z,996.28
2018-02-02T02:13:28.069Z,996.30
2018-02-02T02:13:28.671Z,996.26
2018-02-02T02:13:29.269Z,996.28
2018-02-02T02:13:29.869Z,996.27
2018-02-02T02:13:30.470Z,996.29
2018-02-02T02:13:31.069Z,996.28
2018-02-02T02:14:24.525Z,996.31
2018-02-02T02:14:25.121Z,996.30
2018-02-02T02:14:25.721Z,996.29
2018-02-02T02:14:26.321Z,996.27
2018-02-02T02:14:26.922Z,996.27
2018-02-02T02:14:27.522Z,996.32
2018-02-02T02:14:28.125Z,996.27
2018-02-02T02:14:28.720Z,996.30
2018-02-02T02:15:22.207Z,996.24
2018-02-02T02:15:22.773Z,996.27
2018-02-02T02:15:23.372Z,996.23
2018-02-02T02:15:23.975Z,996.24
2018-02-02T02:15:24.572Z,996.22
2018-02-02T02:15:25.171Z,996.23
2018-02-02T02:15:25.773Z,996.20
2018-02-02T02:15:26.372Z,996.24
2018-02-02T02:16:20.853Z,996.30
2018-02-02T02:16:21.448Z,996.29
2018-02-02T02:16:22.047Z,996.32
2018-02-02T02:16:22.653Z,996.28
2018-02-02T02:16:23.245Z,996.32
2018-02-02T02:16:23.846Z,996.33
2018-02-02T02:16:24.444Z,996.31
2018-02-02T02:16:25.046Z,996.30
2018-02-02T02:17:18.504Z,996.31
2018-02-02T02:17:19.101Z,996.33
2018-02-02T02:17:19.700Z,996.32
2018-02-02T02:17:20.301Z,996.34
2018-02-02T02:17:20.900Z,996.31
2018-02-02T02:17:21.501Z,996.28
2018-02-02T02:17:22.106Z,996.26
2018-02-02T02:17:22.700Z,996.31
2018-02-02T02:18:16.156Z,996.31
2018-02-02T02:18:16.752Z,996.28
2018-02-02T02:18:17.352Z,996.28
2018-02-02T02:18:17.952Z,996.29
2018-02-02T02:18:18.551Z,996.30
2018-02-02T02:18:19.151Z,996.25
2018-02-02T02:18:19.756Z,996.28
2018-02-02T02:18:20.351Z,996.28
2018-02-02T02:19:13.810Z,996.24
2018-02-02T02:19:14.405Z,996.24
2018-02-02T02:19:15.006Z,996.26
2018-02-02T02:19:15.607Z,996.22
2018-02-02T02:19:16.205Z,996.21
2018-02-02T02:19:16.805Z,996.22
2018-02-02T02:19:17.406Z,996.27
2018-02-02T02:19:18.003Z,996.23
2018-02-02T02:20:11.458Z,996.26
2018-02-02T02:20:12.056Z,996.27
2018-02-02T02:20:12.655Z,996.27
2018-02-02T02:20:13.255Z,996.26
2018-02-02T02:20:13.856Z,996.27
2018-02-02T02:20:14.456Z,996.28
2018-02-02T02:20:15.058Z,996.28
2018-02-02T02:20:15.655Z,996.24
2018-02-02T02:21:09.147Z,996.27
2018-02-02T02:21:09.707Z,996.19
2018-02-02T02:21:10.306Z,996.21
2018-02-02T02:21:10.907Z,996.23
2018-02-02T02:21:11.507Z,996.24
2018-02-02T02:21:12.106Z,996.27
2018-02-02T02:21:12.706Z,996.28
2018-02-02T02:21:13.310Z,996.28
2018-02-02T02:22:06.763Z,996.23
2018-02-02T02:22:07.362Z,996.20
2018-02-02T02:22:07.959Z,996.23
2018-02-02T02:22:08.559Z,996.23
2018-02-02T02:22:09.158Z,996.23
2018-02-02T02:22:09.760Z,996.25
2018-02-02T02:22:10.362Z,996.26
2018-02-02T02:22:10.957Z,996.27
2018-02-02T02:23:04.419Z,996.25
2018-02-02T02:23:05.014Z,996.24
2018-02-02T02:23:05.608Z,996.26
2018-02-02T02:23:06.208Z,996.22
2018-02-02T02:23:06.808Z,996.20
2018-02-02T02:23:07.408Z,996.25
2018-02-02T02:23:08.012Z,996.23
2018-02-02T02:23:08.608Z,996.23
2018-02-02T02:24:02.066Z,996.23
2018-02-02T02:24:02.662Z,996.24
2018-02-02T02:24:03.261Z,996.22
2018-02-02T02:24:03.861Z,996.24
2018-02-02T02:24:04.461Z,996.27
2018-02-02T02:24:05.062Z,996.27
2018-02-02T02:24:05.665Z,996.27
2018-02-02T02:24:06.264Z,996.24
2018-02-02T02:24:59.718Z,996.27
2018-02-02T02:25:00.314Z,996.26
2018-02-02T02:25:00.915Z,996.23
2018-02-02T02:25:01.520Z,996.26
2018-02-02T02:25:02.115Z,996.22
2018-02-02T02:25:02.717Z,996.21
2018-02-02T02:25:03.320Z,996.21
2018-02-02T02:25:03.913Z,996.21
2018-02-02T02:25:57.369Z,996.29
2018-02-02T02:25:57.967Z,996.27
2018-02-02T02:25:58.567Z,996.25
2018-02-02T02:25:59.166Z,996.25
2018-02-02T02:25:59.765Z,996.27
2018-02-02T02:26:00.365Z,996.29
2018-02-02T02:26:00.969Z,996.27
2018-02-02T02:26:01.565Z,996.26
2018-02-02T02:26:55.053Z,996.25
2018-02-02T02:26:55.619Z,996.24
2018-02-02T02:26:56.220Z,996.24
2018-02-02T02:26:56.816Z,996.24
2018-02-02T02:26:57.416Z,996.25
2018-02-02T02:26:58.018Z,996.22
2018-02-02T02:26:58.620Z,996.26
2018-02-02T02:26:59.216Z,996.26
2018-02-02T02:27:52.673Z,996.22
2018-02-02T02:27:53.269Z,996.24
2018-02-02T02:27:53.868Z,996.25
2018-02-02T02:27:54.467Z,996.23
2018-02-02T02:27:55.069Z,996.25
2018-02-02T02:27:55.669Z,996.23
2018-02-02T02:27:56.273Z,996.20
2018-02-02T02:27:56.870Z,996.21
2018-02-02T02:28:50.328Z,996.17
2018-02-02T02:28:50.921Z,996.18
2018-02-02T02:28:51.523Z,996.17
2018-02-02T02:28:52.120Z,996.18
2018-02-02T02:28:52.723Z,996.20
2018-02-02T02:28:53.322Z,996.19
2018-02-02T02:28:53.924Z,996.21
2018-02-02T02:28:54.521Z,996.20
2018-02-02T02:29:47.975Z,996.19
2018-02-02T02:29:48.572Z,996.20
2018-02-02T02:29:49.172Z,996.20
2018-02-02T02:29:49.773Z,996.21
2018-02-02T02:29:50.372Z,996.17
2018-02-02T02:29:50.971Z,996.19
2018-02-02T02:29:51.574Z,996.24
2018-02-02T02:29:52.171Z,996.22
2018-02-02T02:30:45.629Z,996.21
2018-02-02T02:30:46.224Z,996.24
2018-02-02T02:30:46.823Z,996.24
2018-02-02T02:30:47.423Z,996.22
2018-02-02T02:30:48.024Z,996.19
2018-02-02T02:30:48.624Z,996.19
2018-02-02T02:30:49.225Z,996.17
2018-02-02T02:30:49.822Z,996.21
2018-02-02T02:31:43.279Z,996.22
2018-02-02T02:31:43.875Z,996.21
2018-02-02T02:31:44.476Z,996.17
2018-02-02T02:31:45.074Z,996.23
2018-02-02T02:31:45.676Z,996.21
2018-02-02T02:31:46.278Z,996.23
2018-02-02T02:31:46.876Z,996.24
2018-02-02T02:31:47.475Z,996.25
2018-02-02T02:32:40.962Z,996.23
2018-02-02T02:32:41.527Z,996.23
2018-02-02T02:32:42.127Z,996.25
2018-02-02T02:32:42.728Z,996.23
2018-02-02T02:32:43.326Z,996.24
2018-02-02T02:32:43.928Z,996.23
2018-02-02T02:32:44.531Z,996.23
2018-02-02T02:32:45.128Z,996.21
2018-02-02T02:33:38.580Z,996.23
2018-02-02T02:33:39.181Z,996.25
2018-02-02T02:33:39.780Z,996.25
2018-02-02T02:33:40.379Z,996.21
2018-02-02T02:33:40.979Z,996.20
2018-02-02T02:33:41.579Z,996.19
2018-02-02T02:33:42.182Z,996.23
2018-02-02T02:33:42.782Z,996.22
2018-02-02T02:53:02.333Z,996.11
2018-02-02T02:53:02.848Z,996.10
2018-02-02T02:53:03.441Z,996.09
2018-02-02T02:53:04.037Z,996.06
2018-02-02T02:53:04.636Z,996.09
2018-02-02T02:53:05.236Z,996.08
2018-02-02T02:53:05.837Z,996.05
2018-02-02T02:53:59.300Z,996.07
2018-02-02T02:53:59.900Z,996.07
2018-02-02T02:54:00.496Z,996.10
2018-02-02T02:54:01.123Z,996.09
2018-02-02T02:54:01.699Z,996.10
2018-02-02T02:54:02.336Z,996.09
2018-02-02T02:54:02.896Z,996.08
2018-02-02T02:54:03.495Z,996.07
2018-02-02T02:54:56.950Z,996.11
2018-02-02T02:54:57.548Z,996.11
2018-02-02T02:54:58.146Z,996.11
2018-02-02T02:54:58.746Z,996.08
2018-02-02T02:54:59.346Z,996.05
2018-02-02T02:54:59.946Z,996.12
2018-02-02T02:55:00.546Z,996.12
2018-02-02T02:55:01.158Z,996.12
2018-02-02T02:55:54.604Z,996.08
2018-02-02T02:55:55.199Z,996.07
2018-02-02T02:55:55.798Z,996.11
2018-02-02T02:55:56.400Z,996.10
2018-02-02T02:55:56.997Z,996.09
2018-02-02T02:55:57.598Z,996.06
2018-02-02T02:55:58.198Z,996.08
2018-02-02T02:55:58.808Z,996.06
2018-02-02T02:56:53.278Z,996.07
2018-02-02T02:56:53.876Z,996.04
2018-02-02T02:56:54.474Z,996.07
2018-02-02T02:56:55.074Z,996.08
2018-02-02T02:56:55.674Z,996.08
2018-02-02T02:56:56.284Z,996.07
2018-02-02T02:56:56.874Z,996.09
2018-02-02T02:56:57.472Z,996.08
2018-02-02T02:57:50.933Z,996.12
2018-02-02T02:57:51.526Z,996.11
2018-02-02T02:57:52.127Z,996.13
2018-02-02T02:57:52.727Z,996.14
2018-02-02T02:57:53.327Z,996.10
2018-02-02T02:57:53.934Z,996.08
2018-02-02T02:57:54.527Z,996.12
2018-02-02T02:57:55.126Z,996.12
2018-02-02T02:58:49.639Z,996.09
2018-02-02T02:58:50.203Z,996.11
2018-02-02T02:58:50.803Z,996.07
2018-02-02T02:58:51.415Z,996.13
2018-02-02T02:58:52.001Z,996.08
2018-02-02T02:58:52.601Z,996.09
2018-02-02T02:58:53.201Z,996.08
2018-02-02T02:58:53.803Z,996.09
2018-02-02T02:59:48.282Z,996.14
2018-02-02T02:59:48.877Z,996.12
2018-02-02T02:59:49.477Z,996.13
2018-02-02T02:59:50.077Z,996.12
2018-02-02T02:59:50.677Z,996.15
2018-02-02T02:59:51.277Z,996.15
2018-02-02T02:59:51.876Z,996.11
2018-02-02T02:59:52.499Z,996.13
2018-02-02T03:00:46.955Z,996.17
2018-02-02T03:00:47.553Z,996.16
2018-02-02T03:00:48.154Z,996.15
2018-02-02T03:00:48.755Z,996.18
2018-02-02T03:00:49.353Z,996.17
2018-02-02T03:00:49.954Z,996.18
2018-02-02T03:00:50.552Z,996.16
2018-02-02T03:00:51.152Z,996.13
2018-02-02T03:01:45.635Z,996.13
2018-02-02T03:01:46.229Z,996.12
2018-02-02T03:01:46.829Z,996.13
2018-02-02T03:01:47.429Z,996.12
2018-02-02T03:01:48.030Z,996.13
2018-02-02T03:01:48.628Z,996.12
2018-02-02T03:01:49.228Z,996.12
2018-02-02T03:01:49.828Z,996.12
2018-02-02T03:02:43.285Z,996.12
2018-02-02T03:02:43.884Z,996.16
2018-02-02T03:02:44.482Z,996.13
2018-02-02T03:02:45.083Z,996.14
2018-02-02T03:02:45.683Z,996.14
2018-02-02T03:02:46.280Z,996.13
2018-02-02T03:02:46.880Z,996.13
2018-02-02T03:02:47.481Z,996.14
2018-02-02T03:03:40.937Z,996.14
2018-02-02T03:03:41.541Z,996.12
2018-02-02T03:03:42.133Z,996.13
2018-02-02T03:03:42.732Z,996.13
2018-02-02T03:03:43.333Z,996.15
2018-02-02T03:03:43.937Z,996.14
2018-02-02T03:03:44.534Z,996.15
2018-02-02T03:03:45.132Z,996.12
2018-02-02T03:04:38.622Z,996.13
2018-02-02T03:04:39.186Z,996.14
2018-02-02T03:04:39.785Z,996.15
2018-02-02T03:04:40.385Z,996.12
2018-02-02T03:04:40.985Z,996.12
2018-02-02T03:04:41.585Z,996.11
2018-02-02T03:04:42.184Z,996.10
2018-02-02T03:04:42.784Z,996.17
2018-02-02T03:05:36.241Z,996.17
2018-02-02T03:05:36.838Z,996.15
2018-02-02T03:05:37.437Z,996.19
2018-02-02T03:05:38.039Z,996.16
2018-02-02T03:05:38.639Z,996.13
2018-02-02T03:05:39.237Z,996.17
2018-02-02T03:05:39.841Z,996.14
2018-02-02T03:05:40.437Z,996.14
2018-02-02T03:06:33.894Z,996.16
2018-02-02T03:06:34.489Z,996.14
2018-02-02T03:06:35.089Z,996.15
2018-02-02T03:06:35.688Z,996.13
2018-02-02T03:06:36.288Z,996.11
2018-02-02T03:06:36.888Z,996.18
2018-02-02T03:06:37.488Z,996.17
2018-02-02T03:06:38.087Z,996.15
2018-02-02T03:07:31.545Z,996.13
2018-02-02T03:07:32.142Z,996.14
2018-02-02T03:07:32.740Z,996.14
2018-02-02T03:07:33.341Z,996.10
2018-02-02T03:07:33.940Z,996.13
2018-02-02T03:07:34.542Z,996.12
2018-02-02T03:07:35.143Z,996.13
2018-02-02T03:07:35.740Z,996.12
2018-02-02T03:08:29.196Z,996.15
2018-02-02T03:08:29.793Z,996.13
2018-02-02T03:08:30.392Z,996.12
2018-02-02T03:08:30.991Z,996.12
2018-02-02T03:08:31.596Z,996.10
2018-02-02T03:08:32.192Z,996.14
2018-02-02T03:08:32.797Z,996.14
2018-02-02T03:08:33.394Z,996.12
2018-02-02T03:09:26.847Z,996.10
2018-02-02T03:09:27.444Z,996.11
2018-02-02T03:09:28.043Z,996.09
2018-02-02T03:09:28.644Z,996.11
2018-02-02T03:09:29.244Z,996.09
2018-02-02T03:09:29.844Z,996.11
2018-02-02T03:09:30.447Z,996.07
2018-02-02T03:09:31.043Z,996.10
2018-02-02T03:10:24.532Z,996.12
2018-02-02T03:10:25.096Z,996.10
2018-02-02T03:10:25.697Z,996.08
2018-02-02T03:10:26.296Z,996.09
2018-02-02T03:10:26.896Z,996.09
2018-02-02T03:10:27.497Z,996.11
2018-02-02T03:10:28.104Z,996.08
2018-02-02T03:10:28.696Z,996.10
2018-02-02T03:11:22.152Z,996.13
2018-02-02T03:11:22.747Z,996.11
2018-02-02T03:11:23.348Z,996.13
2018-02-02T03:11:23.948Z,996.10
2018-02-02T03:11:24.547Z,996.11
2018-02-02T03:11:25.147Z,996.12
2018-02-02T03:11:25.750Z,996.13
2018-02-02T03:11:26.346Z,996.12
2018-02-02T03:12:19.804Z,996.15
2018-02-02T03:12:20.401Z,996.14
2018-02-02T03:12:20.998Z,996.08
2018-02-02T03:12:21.604Z,996.13
2018-02-02T03:12:22.199Z,996.13
2018-02-02T03:12:22.800Z,996.10
2018-02-02T03:12:23.401Z,996.12
2018-02-02T03:12:24.004Z,996.15
2018-02-02T03:13:17.455Z,996.19
2018-02-02T03:13:18.051Z,996.14
2018-02-02T03:13:18.652Z,996.14
2018-02-02T03:13:19.256Z,996.15
2018-02-02T03:13:19.850Z,996.14
2018-02-02T03:13:20.450Z,996.16
2018-02-02T03:13:21.055Z,996.16
2018-02-02T03:13:21.651Z,996.11
2018-02-02T03:14:15.106Z,996.16
2018-02-02T03:14:15.703Z,996.15
2018-02-02T03:14:16.303Z,996.12
2018-02-02T03:14:16.902Z,996.12
2018-02-02T03:14:17.503Z,996.15
2018-02-02T03:14:18.104Z,996.13
2018-02-02T03:14:18.705Z,996.13
2018-02-02T03:14:19.301Z,996.13
2018-02-02T03:15:12.762Z,996.13
2018-02-02T03:15:13.356Z,996.13
2018-02-02T03:15:13.954Z,996.15
2018-02-02T03:15:14.552Z,996.13
2018-02-02T03:15:15.154Z,996.11
2018-02-02T03:15:15.755Z,996.12
2018-02-02T03:15:16.356Z,996.11
2018-02-02T03:15:16.953Z,996.11
2018-02-02T03:16:10.443Z,996.09
2018-02-02T03:16:11.006Z,996.10
2018-02-02T03:16:11.606Z,996.09
2018-02-02T03:16:12.210Z,996.10
2018-02-02T03:16:12.807Z,996.08
2018-02-02T03:16:13.404Z,996.09
2018-02-02T03:16:14.012Z,996.06
2018-02-02T03:16:14.616Z,996.11
2018-02-02T03:17:08.061Z,996.11
2018-02-02T03:17:08.658Z,996.10
2018-02-02T03:17:09.258Z,996.10
2018-02-02T03:17:09.857Z,996.09
2018-02-02T03:17:10.458Z,996.07
2018-02-02T03:17:11.058Z,996.07
2018-02-02T03:17:11.662Z,996.05
2018-02-02T03:17:12.258Z,996.08
2018-02-02T03:18:05.714Z,996.12
2018-02-02T03:18:06.309Z,996.09
2018-02-02T03:18:06.910Z,996.06
2018-02-02T03:18:07.510Z,996.08
2018-02-02T03:18:08.109Z,996.06
2018-02-02T03:18:08.711Z,996.10
2018-02-02T03:18:09.311Z,996.06
2018-02-02T03:18:09.907Z,996.07
2018-02-02T03:19:03.365Z,996.10
2018-02-02T03:19:03.963Z,996.10
2018-02-02T03:19:04.561Z,996.11
2018-02-02T03:19:05.161Z,996.11
2018-02-02T03:19:05.761Z,996.11
2018-02-02T03:19:06.362Z,996.06
2018-02-02T03:19:06.966Z,996.08
2018-02-02T03:19:07.562Z,996.10
2018-02-02T03:20:01.019Z,996.11
2018-02-02T03:20:01.613Z,996.08
2018-02-02T03:20:02.213Z,996.12
2018-02-02T03:20:02.813Z,996.12
2018-02-02T03:20:03.414Z,996.12
2018-02-02T03:20:04.013Z,996.12
2018-02-02T03:20:04.616Z,996.12
2018-02-02T03:20:05.212Z,996.10
2018-02-02T03:20:58.681Z,996.14
2018-02-02T03:20:59.265Z,996.15
2018-02-02T03:20:59.864Z,996.12
2018-02-02T03:21:00.466Z,996.12
2018-02-02T03:21:01.066Z,996.12
2018-02-02T03:21:01.665Z,996.15
2018-02-02T03:21:02.267Z,996.14
2018-02-02T03:21:02.865Z,996.14
2018-02-02T03:21:56.353Z,996.17
2018-02-02T03:21:56.917Z,996.16
2018-02-02T03:21:57.518Z,996.15
2018-02-02T03:21:58.116Z,996.13
2018-02-02T03:21:58.718Z,996.12
2018-02-02T03:21:59.317Z,996.17
2018-02-02T03:21:59.917Z,996.16
2018-02-02T03:22:00.514Z,996.13
2018-02-02T03:22:53.972Z,996.14
2018-02-02T03:22:54.568Z,996.14
2018-02-02T03:22:55.168Z,996.13
2018-02-02T03:22:55.767Z,996.16
2018-02-02T03:22:56.368Z,996.11
2018-02-02T03:22:56.970Z,996.12
2018-02-02T03:22:57.569Z,996.15
2018-02-02T03:22:58.166Z,996.13
2018-02-02T03:23:51.624Z,996.13
2018-02-02T03:23:52.220Z,996.11
2018-02-02T03:23:52.819Z,996.15
2018-02-02T03:23:53.419Z,996.11
2018-02-02T03:23:54.022Z,996.12
2018-02-02T03:23:54.620Z,996.15
2018-02-02T03:23:55.222Z,996.16
2018-02-02T03:23:55.820Z,996.13
2018-02-02T03:24:49.276Z,996.17
2018-02-02T03:24:49.871Z,996.14
2018-02-02T03:24:50.472Z,996.14
2018-02-02T03:24:51.073Z,996.15
2018-02-02T03:24:51.672Z,996.16
2018-02-02T03:24:52.272Z,996.14
2018-02-02T03:24:52.872Z,996.12
2018-02-02T03:24:53.471Z,996.13
2018-02-02T03:25:46.926Z,996.18
2018-02-02T03:25:47.522Z,996.19
2018-02-02T03:25:48.123Z,996.19
2018-02-02T03:25:48.722Z,996.17
2018-02-02T03:25:49.326Z,996.13
2018-02-02T03:25:49.926Z,996.17
2018-02-02T03:25:50.525Z,996.16
2018-02-02T03:25:51.121Z,996.14
2018-02-02T03:26:44.604Z,996.20
2018-02-02T03:26:45.172Z,996.20
2018-02-02T03:26:45.772Z,996.20
2018-02-02T03:26:46.371Z,996.20
2018-02-02T03:26:46.973Z,996.21
2018-02-02T03:26:47.573Z,996.18
2018-02-02T03:26:48.178Z,996.18
2018-02-02T03:26:48.770Z,996.20
2018-02-02T03:27:42.252Z,996.19
2018-02-02T03:27:42.824Z,996.19
2018-02-02T03:27:43.425Z,996.17
2018-02-02T03:27:44.029Z,996.17
2018-02-02T03:27:44.627Z,996.18
2018-02-02T03:27:45.225Z,996.17
2018-02-02T03:27:45.825Z,996.18